Time;durP1;ratioP1;P1;durP2;ratioP2;P2;SDS_P1;SDS_P2;PMS_P1;PMS_P2;Temp;Humidity;BMP_temperature;BMP_pressure;BME280_temperature;BME280_humidity;BME280_pressure;Samples;Min_cycle;Max_cycle;Signal;HPM_P1;HPM_P2
2022/02/28 00:01:37;;;;;;;8.23;4.60;;;;;;;1.48;57.82;100309.22;2625162;54;20038;-70
2022/02/28 00:04:07;;;;;;;9.48;5.32;;;;;;;1.46;57.71;100310.25;2624655;54;20070;-67
2022/02/28 00:06:36;;;;;;;7.00;5.28;;;;;;;1.40;57.83;100305.44;2624813;54;20045;-67
2022/02/28 00:09:08;;;;;;;7.85;4.80;;;;;;;1.35;58.27;100312.72;2625218;54;20030;-67
2022/02/28 00:11:38;;;;;;;7.53;5.13;;;;;;;1.27;58.33;100310.59;2625102;54;20052;-68
2022/02/28 00:14:08;;;;;;;9.00;5.53;;;;;;;1.20;58.82;100320.53;2624761;54;20549;-67
2022/02/28 00:16:37;;;;;;;8.07;5.05;;;;;;;1.19;58.88;100318.88;2624817;54;20041;-68
2022/02/28 00:19:07;;;;;;;9.30;5.70;;;;;;;1.15;59.10;100312.19;2624345;54;20061;-68
2022/02/28 00:21:37;;;;;;;8.80;5.32;;;;;;;1.11;59.56;100312.47;2624709;54;20038;-70
2022/02/28 00:24:09;;;;;;;7.03;5.00;;;;;;;1.15;59.55;100308.75;2623940;54;20553;-67
2022/02/28 00:26:39;;;;;;;7.65;5.50;;;;;;;1.13;59.54;100305.38;2624890;54;20585;-70
2022/02/28 00:29:09;;;;;;;6.80;5.40;;;;;;;1.13;59.48;100308.00;2624881;54;20022;-67
2022/02/28 00:31:39;;;;;;;8.00;5.25;;;;;;;1.12;59.44;100306.31;2624972;54;20165;-67
2022/02/28 00:34:08;;;;;;;8.73;5.32;;;;;;;1.09;59.63;100309.13;2624697;54;20034;-67
2022/02/28 00:36:40;;;;;;;7.18;5.38;;;;;;;1.09;59.46;100306.50;2624909;54;20039;-67
2022/02/28 00:39:12;;;;;;;8.13;5.20;;;;;;;1.07;59.42;100305.78;2624736;54;20038;-67
2022/02/28 00:41:42;;;;;;;8.40;5.70;;;;;;;0.99;59.41;100307.09;2622708;46;20038;-67
2022/02/28 00:44:12;;;;;;;7.38;5.55;;;;;;;0.97;59.45;100308.09;2623677;54;20042;-69
2022/02/28 00:46:42;;;;;;;7.85;6.07;;;;;;;0.91;59.79;100309.31;2623768;54;20034;-67
2022/02/28 00:49:12;;;;;;;10.45;6.43;;;;;;;0.92;60.25;100300.56;2624715;54;20038;-67
2022/02/28 00:51:41;;;;;;;12.35;6.15;;;;;;;0.90;60.18;100306.84;2624072;54;20043;-67
2022/02/28 00:54:15;;;;;;;13.48;7.47;;;;;;;0.85;60.10;100294.06;2624199;46;20086;-68
2022/02/28 00:56:44;;;;;;;12.30;6.90;;;;;;;0.87;60.26;100307.00;2624382;47;20038;-67
2022/02/28 00:59:14;;;;;;;10.02;6.10;;;;;;;0.83;60.55;100305.53;2625116;54;20041;-68
2022/02/28 01:01:44;;;;;;;9.75;6.55;;;;;;;0.85;60.29;100301.88;2624702;54;20081;-67
2022/02/28 01:04:15;;;;;;;9.23;5.80;;;;;;;0.90;60.15;100299.03;2624535;54;20041;-68
2022/02/28 01:06:46;;;;;;;8.70;5.50;;;;;;;0.91;60.40;100300.69;2624031;47;20023;-67
2022/02/28 01:09:18;;;;;;;9.30;5.18;;;;;;;0.90;60.14;100302.44;2624321;51;20030;-67
2022/02/28 01:11:48;;;;;;;8.80;5.55;;;;;;;0.91;60.59;100306.72;2624828;54;20031;-67
2022/02/28 01:14:18;;;;;;;9.15;4.75;;;;;;;0.90;60.12;100309.44;2624544;46;20082;-68
2022/02/28 01:16:49;;;;;;;11.77;5.45;;;;;;;0.89;60.11;100308.56;2624907;54;20110;-71
2022/02/28 01:19:19;;;;;;;8.77;5.78;;;;;;;0.82;60.25;100306.47;2623843;54;20086;-69
2022/02/28 01:21:50;;;;;;;9.13;5.25;;;;;;;0.74;60.52;100305.16;2624022;54;20018;-67
2022/02/28 01:24:23;;;;;;;5.82;4.40;;;;;;;0.72;60.35;100303.56;2624559;54;20026;-66
2022/02/28 01:26:52;;;;;;;10.13;5.65;;;;;;;0.65;60.96;100303.13;2624128;47;20027;-67
2022/02/28 01:29:22;;;;;;;7.75;5.50;;;;;;;0.62;60.95;100305.06;2624318;54;20037;-67
2022/02/28 01:31:54;;;;;;;8.18;5.20;;;;;;;0.59;60.69;100293.06;2623747;47;20042;-66
2022/02/28 01:34:24;;;;;;;49.00;24.10;;;;;;;0.55;60.88;100291.56;2624510;54;20026;-67
2022/02/28 01:36:55;;;;;;;10.48;5.80;;;;;;;0.52;61.22;100288.31;2624484;54;20307;-67
2022/02/28 01:39:27;;;;;;;13.50;5.82;;;;;;;0.46;61.64;100292.13;2624396;54;20031;-67
2022/02/28 01:41:58;;;;;;;12.05;5.13;;;;;;;0.44;61.53;100301.78;2623724;51;20082;-68
2022/02/28 01:44:27;;;;;;;9.40;5.50;;;;;;;0.48;61.56;100303.28;2624421;54;20026;-67
2022/02/28 01:47:00;;;;;;;12.50;5.95;;;;;;;0.45;61.51;100299.09;2624090;54;20027;-67
2022/02/28 01:49:30;;;;;;;10.77;5.88;;;;;;;0.48;61.65;100296.28;2623526;47;20058;-69
2022/02/28 01:52:01;;;;;;;11.82;6.18;;;;;;;0.48;61.41;100295.47;2622746;54;20038;-67
2022/02/28 01:54:33;;;;;;;10.88;6.07;;;;;;;0.45;61.44;100290.47;2622689;47;20034;-67
2022/02/28 01:57:03;;;;;;;8.68;5.78;;;;;;;0.41;61.16;100292.41;2622714;54;20054;-67
2022/02/28 01:59:33;;;;;;;9.55;5.28;;;;;;;0.36;61.39;100293.59;2622762;47;20033;-67
2022/02/28 02:02:03;;;;;;;7.35;4.70;;;;;;;0.31;61.80;100296.47;2623196;54;20079;-67
2022/02/28 02:04:33;;;;;;;9.63;5.70;;;;;;;0.26;61.66;100293.31;2622279;47;20042;-67
2022/02/28 02:07:05;;;;;;;8.35;4.85;;;;;;;0.20;61.62;100283.25;2622992;47;20046;-67
2022/02/28 02:09:38;;;;;;;7.55;4.80;;;;;;;0.12;61.71;100269.88;2624586;54;20038;-68
2022/02/28 02:12:09;;;;;;;8.80;4.95;;;;;;;0.07;62.01;100269.31;2624214;46;20038;-67
2022/02/28 02:14:39;;;;;;;9.02;5.15;;;;;;;-0.01;62.34;100265.38;2623038;39;20407;-67
2022/02/28 02:17:09;;;;;;;8.50;5.35;;;;;;;-0.08;62.48;100271.88;2622886;54;20041;-68
2022/02/28 02:19:40;;;;;;;10.80;5.18;;;;;;;-0.15;62.49;100264.53;2623631;54;20062;-67
2022/02/28 02:22:14;;;;;;;8.80;5.03;;;;;;;-0.21;63.31;100270.91;2623513;47;20034;-67
2022/02/28 02:24:43;;;;;;;;;;;;;;;-0.27;63.23;100263.47;2623966;47;20054;-67
2022/02/28 02:27:13;;;;;;;7.72;5.03;;;;;;;-0.29;63.57;100260.97;2623708;46;19950;-67
2022/02/28 02:29:43;;;;;;;8.93;5.22;;;;;;;-0.25;63.65;100261.59;2623797;54;20030;-72
2022/02/28 02:32:16;;;;;;;10.25;6.30;;;;;;;-0.26;63.71;100252.97;2623781;54;20633;-68
2022/02/28 02:34:48;;;;;;;7.55;5.03;;;;;;;-0.30;63.73;100251.47;2623758;47;20041;-68
2022/02/28 02:37:20;;;;;;;8.32;5.38;;;;;;;-0.29;63.76;100253.19;2624126;54;20034;-68
2022/02/28 02:39:50;;;;;;;8.27;5.40;;;;;;;-0.28;63.47;100248.81;2623480;47;20502;-67
2022/02/28 02:42:20;;;;;;;10.65;6.07;;;;;;;-0.30;63.77;100250.66;2621583;47;20249;-69
2022/02/28 02:44:49;;;;;;;8.65;5.15;;;;;;;-0.28;63.58;100247.03;2622942;47;20644;-67
2022/02/28 02:47:19;;;;;;;7.63;5.07;;;;;;;-0.26;63.61;100252.16;2624229;47;20031;-65
2022/02/28 02:50:11;;;;;;;7.80;6.22;;;;;;;-0.24;63.67;100252.91;2624036;54;20041;-67
2022/02/28 02:52:43;;;;;;;7.85;5.38;;;;;;;-0.23;63.35;100251.16;2623020;54;20699;-66
2022/02/28 02:55:14;;;;;;;9.80;5.80;;;;;;;-0.27;63.70;100253.06;2623686;54;20033;-66
2022/02/28 02:57:43;;;;;;;10.75;5.63;;;;;;;-0.29;63.68;100253.19;2623950;47;20102;-65
2022/02/28 03:00:14;;;;;;;7.53;5.15;;;;;;;-0.30;63.73;100250.66;2624251;39;20430;-67
2022/02/28 03:03:22;;;;;;;12.40;5.78;;;;;;;-0.33;63.86;100241.28;2624082;54;20049;-66
2022/02/28 03:05:53;;;;;;;9.98;5.18;;;;;;;-0.33;63.85;100241.28;2623591;54;20034;-66
2022/02/28 03:08:27;;;;;;;8.90;5.82;;;;;;;-0.29;63.83;100244.50;2623483;54;20037;-67
2022/02/28 03:10:57;;;;;;;9.77;5.63;;;;;;;-0.28;63.92;100243.63;2623711;54;20038;-66
2022/02/28 03:13:26;;;;;;;8.80;5.68;;;;;;;-0.20;64.22;100244.00;2623969;54;20042;-67
2022/02/28 03:15:57;;;;;;;8.82;5.88;;;;;;;-0.20;64.04;100244.00;2623983;47;20030;-66
2022/02/28 03:18:28;;;;;;;7.85;5.97;;;;;;;-0.17;64.05;100243.81;2624217;39;20494;-66
2022/02/28 03:20:58;;;;;;;9.00;5.93;;;;;;;-0.12;63.99;100251.38;2624209;54;20062;-67
2022/02/28 03:23:34;;;;;;;9.32;5.35;;;;;;;-0.04;64.08;100255.19;2624415;54;20048;-67
2022/02/28 03:26:09;;;;;;;7.45;5.45;;;;;;;0.02;63.82;100253.97;2623567;54;20022;-67
2022/02/28 03:28:42;;;;;;;11.05;6.15;;;;;;;0.09;64.14;100255.31;2624414;54;20027;-67
2022/02/28 03:31:12;;;;;;;9.32;6.00;;;;;;;0.07;63.43;100251.94;2624317;54;20031;-68
2022/02/28 03:33:42;;;;;;;7.95;6.03;;;;;;;0.02;63.10;100248.78;2624474;51;20036;-67
2022/02/28 03:36:15;;;;;;;7.40;5.47;;;;;;;0.05;63.52;100247.78;2624580;47;20030;-67
2022/02/28 03:38:53;;;;;;;7.93;5.70;;;;;;;0.07;63.10;100253.72;2624082;51;20030;-66
2022/02/28 03:41:23;;;;;;;9.52;5.82;;;;;;;0.10;63.24;100248.34;2623448;47;20789;-66
2022/02/28 03:43:54;;;;;;;10.65;5.70;;;;;;;0.06;63.27;100242.47;2624502;46;20069;-67
2022/02/28 03:46:31;;;;;;;11.15;6.15;;;;;;;0.02;63.04;100238.38;2623406;47;20030;-67
2022/02/28 03:49:16;;;;;;;8.57;5.78;;;;;;;-0.03;63.20;100238.66;2624169;54;20046;-66
2022/02/28 03:52:01;;;;;;;8.95;5.65;;;;;;;-0.06;63.06;100241.44;2623495;49;20026;-67
2022/02/28 03:55:07;;;;;;;9.57;6.03;;;;;;;-0.09;63.02;100236.41;2622883;50;20034;-67
2022/02/28 03:57:38;;;;;;;9.65;6.03;;;;;;;-0.13;62.85;100247.06;2623025;54;20033;-68
2022/02/28 04:00:11;;;;;;;8.52;6.13;;;;;;;-0.12;63.32;100246.16;2623736;39;20422;-66
2022/02/28 04:02:44;;;;;;;8.38;5.97;;;;;;;-0.11;63.18;100240.88;2624567;54;20038;-67
2022/02/28 04:05:16;;;;;;;7.78;5.75;;;;;;;-0.07;63.06;100239.75;2625520;39;20414;-67
2022/02/28 04:07:47;;;;;;;8.18;5.60;;;;;;;-0.05;63.30;100244.84;2624648;54;20038;-68
2022/02/28 04:10:20;;;;;;;6.57;5.25;;;;;;;0.02;63.23;100243.59;2624364;47;20027;-67
2022/02/28 04:12:50;;;;;;;8.35;5.95;;;;;;;0.08;63.17;100244.97;2624064;54;20570;-69
2022/02/28 04:15:20;;;;;;;8.73;6.07;;;;;;;0.13;62.61;100250.75;2624475;54;20029;-66
2022/02/28 04:17:50;;;;;;;10.98;6.82;;;;;;;0.11;62.73;100242.19;2623218;54;20145;-67
2022/02/28 04:20:25;;;;;;;12.50;6.88;;;;;;;0.09;62.72;100246.66;2623605;54;20034;-67
2022/02/28 04:22:55;;;;;;;9.52;5.75;;;;;;;0.03;62.57;100237.44;2623715;54;20134;-67
2022/02/28 04:25:27;;;;;;;9.93;6.45;;;;;;;0.06;62.77;100233.84;2624355;46;20046;-68
2022/02/28 04:27:59;;;;;;;;;;;;;;;0.12;62.47;100230.88;2623955;50;20041;-68
2022/02/28 04:30:29;;;;;;;12.73;6.45;;;;;;;0.03;62.27;100232.25;2625661;54;19973;-65
2022/02/28 04:32:59;;;;;;;10.40;6.65;;;;;;;-0.05;62.73;100231.88;2624622;54;20034;-66
2022/02/28 04:35:30;;;;;;;9.95;6.40;;;;;;;-0.20;62.89;100231.00;2624796;51;20031;-66
2022/02/28 04:38:05;;;;;;;;;;;;;;;-0.27;63.16;100242.69;2625033;54;20046;-67
2022/02/28 04:40:39;;;;;;;9.50;6.18;;;;;;;-0.33;63.53;100240.41;2624698;51;19953;-66
2022/02/28 04:43:10;;;;;;;12.75;7.10;;;;;;;-0.31;63.26;100244.63;2624785;51;20126;-65
2022/02/28 04:45:40;;;;;;;9.88;6.90;;;;;;;-0.33;63.18;100233.50;2624734;54;20038;-66
2022/02/28 04:48:09;;;;;;;10.07;6.47;;;;;;;-0.34;63.35;100237.00;2625049;54;20161;-66
2022/02/28 04:51:02;;;;;;;13.57;6.60;;;;;;;-0.39;63.36;100241.63;2624998;54;20085;-67
2022/02/28 04:53:33;;;;;;;10.95;6.72;;;;;;;-0.32;63.69;100240.34;2624490;47;20030;-67
2022/02/28 04:56:07;;;;;;;9.85;6.53;;;;;;;-0.28;63.93;100236.66;2628193;39;20552;-66
2022/02/28 04:58:37;;;;;;;10.27;7.47;;;;;;;-0.22;63.68;100234.63;2622261;54;20537;-67
2022/02/28 05:01:14;;;;;;;9.95;6.60;;;;;;;-0.25;63.62;100238.22;2623522;47;20049;-67
2022/02/28 05:03:47;;;;;;;9.00;6.60;;;;;;;-0.32;63.57;100236.91;2624353;46;20026;-66
2022/02/28 05:06:18;;;;;;;9.38;6.75;;;;;;;-0.27;63.70;100237.47;2625622;47;20287;-67
2022/02/28 05:08:52;;;;;;;11.63;7.75;;;;;;;-0.21;63.94;100238.88;2624765;47;20054;-66
2022/02/28 05:11:25;;;;;;;12.27;7.18;;;;;;;-0.23;63.63;100236.38;2624841;47;20585;-64
2022/02/28 05:13:55;;;;;;;11.98;7.32;;;;;;;-0.25;64.12;100238.22;2624457;54;20062;-67
2022/02/28 05:16:24;;;;;;;11.65;7.80;;;;;;;-0.18;64.01;100249.09;2621401;54;20038;-66
2022/02/28 05:18:54;;;;;;;13.80;7.82;;;;;;;-0.22;64.15;100243.25;2619185;54;20030;-66
2022/02/28 05:21:24;;;;;;;11.65;7.38;;;;;;;-0.28;64.30;100233.22;2619933;54;20020;-68
2022/02/28 05:23:53;;;;;;;9.48;7.40;;;;;;;-0.34;64.04;100244.78;2619965;47;20031;-66
2022/02/28 05:26:26;;;;;;;10.82;7.63;;;;;;;-0.48;64.41;100249.13;2620079;54;20054;-66
2022/02/28 05:28:56;;;;;;;13.25;7.38;;;;;;;-0.56;64.95;100250.38;2620434;47;20026;-68
2022/02/28 05:31:26;;;;;;;9.07;7.18;;;;;;;-0.46;64.90;100255.88;2620606;54;20550;-66
2022/02/28 05:34:16;;;;;;;10.77;7.07;;;;;;;-0.45;64.69;100264.50;2620514;39;20420;-65
2022/02/28 05:36:51;;;;;;;12.75;7.28;;;;;;;-0.46;64.91;100268.03;2619645;47;20031;-66
2022/02/28 05:39:40;;;;;;;15.32;7.80;;;;;;;-0.53;64.86;100265.78;2620027;54;20038;-66
2022/02/28 05:42:13;;;;;;;12.73;8.77;;;;;;;-0.60;65.06;100268.81;2620011;54;20026;-66
2022/02/28 05:44:45;;;;;;;12.27;8.02;;;;;;;-0.72;64.80;100266.91;2619047;54;20031;-66
2022/02/28 05:47:15;;;;;;;12.05;8.10;;;;;;;-0.71;65.04;100273.75;2619747;47;20030;-66
2022/02/28 05:49:47;;;;;;;11.32;7.72;;;;;;;-0.75;65.34;100266.13;2617739;46;20129;-65
2022/02/28 05:52:17;;;;;;;15.20;8.20;;;;;;;-0.75;65.47;100273.94;2618771;39;20429;-66
2022/02/28 05:54:47;;;;;;;13.68;8.13;;;;;;;-0.67;65.22;100276.09;2618195;54;20553;-66
2022/02/28 05:57:19;;;;;;;11.13;7.88;;;;;;;-0.64;65.17;100281.13;2618381;31;20714;-66
2022/02/28 05:59:48;;;;;;;12.60;8.77;;;;;;;-0.63;65.23;100287.16;2617850;54;20037;-65
2022/02/28 06:02:18;;;;;;;13.35;8.82;;;;;;;-0.66;65.70;100282.97;2618473;54;20045;-66
2022/02/28 06:04:48;;;;;;;16.65;9.10;;;;;;;-0.66;65.63;100288.16;2618077;54;20592;-67
2022/02/28 06:07:17;;;;;;;11.95;8.25;;;;;;;-0.64;65.35;100282.91;2618989;54;20042;-67
2022/02/28 06:09:47;;;;;;;13.25;7.95;;;;;;;-0.61;65.47;100288.75;2620005;54;20568;-67
2022/02/28 06:12:19;;;;;;;12.48;8.13;;;;;;;-0.59;65.61;100292.09;2620830;47;20545;-67
2022/02/28 06:14:49;;;;;;;13.27;7.95;;;;;;;-0.59;65.37;100291.25;2621725;47;20040;-67
2022/02/28 06:17:18;;;;;;;12.75;8.10;;;;;;;-0.57;65.53;100284.25;2620724;54;20042;-67
2022/02/28 06:19:48;;;;;;;13.10;7.97;;;;;;;-0.55;65.02;100282.38;2620910;47;20573;-67
2022/02/28 06:22:20;;;;;;;12.27;8.20;;;;;;;-0.54;65.24;100284.88;2620716;54;20045;-68
2022/02/28 06:24:50;;;;;;;15.57;9.43;;;;;;;-0.61;64.57;100283.56;2620347;54;20026;-67
2022/02/28 06:27:25;;;;;;;12.77;8.43;;;;;;;-0.62;65.36;100286.22;2622508;54;20545;-68
2022/02/28 06:29:54;;;;;;;12.27;8.30;;;;;;;-0.60;65.07;100289.59;2622487;54;20803;-67
2022/02/28 06:32:24;;;;;;;13.82;8.20;;;;;;;-0.55;65.28;100283.22;2623019;54;20561;-67
2022/02/28 06:34:55;;;;;;;11.52;8.35;;;;;;;-0.48;65.34;100293.28;2620334;47;20023;-67
2022/02/28 06:37:25;;;;;;;16.70;9.90;;;;;;;-0.54;64.73;100292.66;2620627;54;20050;-67
2022/02/28 06:39:55;;;;;;;17.20;10.40;;;;;;;-0.52;65.22;100290.84;2621058;47;20034;-68
2022/02/28 06:42:29;;;;;;;22.00;10.18;;;;;;;-0.42;65.10;100292.91;2622142;54;20038;-67
2022/02/28 06:44:59;;;;;;;14.70;9.55;;;;;;;-0.38;64.76;100290.06;2622191;54;20570;-67
2022/02/28 06:47:29;;;;;;;17.30;10.05;;;;;;;-0.38;64.70;100294.41;2619174;54;20593;-67
2022/02/28 06:49:59;;;;;;;18.73;9.35;;;;;;;-0.39;64.93;100293.59;2618955;54;20050;-66
2022/02/28 06:52:28;;;;;;;17.15;9.90;;;;;;;-0.35;65.40;100294.25;2618588;54;20077;-66
2022/02/28 06:54:58;;;;;;;12.75;8.73;;;;;;;-0.41;64.81;100290.25;2618633;54;20069;-68
2022/02/28 06:57:30;;;;;;;15.07;9.63;;;;;;;-0.45;65.09;100293.94;2618722;54;20038;-67
2022/02/28 07:00:00;;;;;;;13.48;8.95;;;;;;;-0.50;65.44;100296.78;2618079;54;20034;-67
2022/02/28 07:02:30;;;;;;;13.93;9.25;;;;;;;-0.48;65.29;100295.88;2618207;47;20041;-66
2022/02/28 07:05:10;;;;;;;15.60;9.25;;;;;;;-0.37;65.73;100304.75;2618734;54;20030;-66
2022/02/28 07:07:40;;;;;;;15.07;9.02;;;;;;;-0.26;65.54;100304.13;2619823;54;20034;-66
2022/02/28 07:10:12;;;;;;;14.35;8.77;;;;;;;-0.12;65.28;100311.16;2621731;54;20027;-67
2022/02/28 07:12:44;;;;;;;13.02;8.75;;;;;;;-0.02;65.19;100300.13;2621490;54;20035;-67
2022/02/28 07:15:14;;;;;;;12.60;8.75;;;;;;;0.11;65.00;100292.44;2618117;47;20039;-65
2022/02/28 07:17:44;;;;;;;18.65;10.70;;;;;;;0.20;64.60;100304.06;2619039;54;20035;-66
2022/02/28 07:20:14;;;;;;;17.65;10.23;;;;;;;0.22;64.63;100303.06;2619113;47;20058;-66
2022/02/28 07:22:43;;;;;;;17.55;9.90;;;;;;;0.21;64.03;100300.56;2619697;54;20030;-67
2022/02/28 07:25:13;;;;;;;15.45;9.52;;;;;;;0.10;64.24;100302.94;2619215;54;20039;-67
2022/02/28 07:27:46;;;;;;;14.52;9.60;;;;;;;0.14;64.48;100299.25;2619241;54;20038;-67
2022/02/28 07:30:16;;;;;;;16.53;9.73;;;;;;;0.24;64.81;100297.75;2619034;54;20038;-67
2022/02/28 07:32:46;;;;;;;19.75;10.80;;;;;;;0.36;64.75;100306.59;2619105;54;20027;-67
2022/02/28 07:35:16;;;;;;;17.65;9.95;;;;;;;0.48;64.18;100309.31;2619121;54;20026;-66
2022/02/28 07:37:45;;;;;;;14.57;9.75;;;;;;;0.60;64.07;100302.53;2618859;54;20035;-66
2022/02/28 07:40:16;;;;;;;18.20;9.85;;;;;;;0.68;63.96;100315.09;2619216;54;20562;-65
2022/02/28 07:42:51;;;;;;;16.83;9.88;;;;;;;0.78;63.95;100315.38;2618576;54;20037;-67
2022/02/28 07:45:21;;;;;;;18.77;10.70;;;;;;;0.87;63.49;100312.22;2619007;54;20030;-66
2022/02/28 07:47:51;;;;;;;14.02;9.95;;;;;;;0.95;63.58;100317.78;2618488;54;20034;-66
2022/02/28 07:50:21;;;;;;;20.60;10.45;;;;;;;1.06;63.30;100322.31;2618769;54;20027;-67
2022/02/28 07:52:51;;;;;;;21.10;11.40;;;;;;;1.12;63.21;100314.97;2619352;39;20406;-66
2022/02/28 07:55:20;;;;;;;19.38;10.27;;;;;;;1.19;63.09;100313.66;2618776;54;20081;-65
2022/02/28 07:57:52;;;;;;;17.48;10.50;;;;;;;1.27;63.21;100310.59;2619380;54;20042;-65
2022/02/28 08:00:25;;;;;;;16.65;10.35;;;;;;;1.34;62.40;100301.44;2619197;39;20380;-66
2022/02/28 08:02:55;;;;;;;18.83;10.10;;;;;;;1.40;62.33;100308.88;2618408;54;20044;-66
2022/02/28 08:05:25;;;;;;;17.63;11.02;;;;;;;1.46;61.75;100312.84;2619086;54;20014;-65
2022/02/28 08:07:57;;;;;;;18.08;11.02;;;;;;;1.53;61.88;100308.09;2619416;54;20030;-66
2022/02/28 08:10:27;;;;;;;15.30;10.90;;;;;;;1.61;62.06;100316.25;2619415;54;20026;-67
2022/02/28 08:13:02;;;;;;;17.25;10.55;;;;;;;1.75;61.67;100305.75;2619486;39;20434;-68
2022/02/28 08:15:31;;;;;;;18.05;10.73;;;;;;;1.89;61.19;100304.88;2618877;54;20049;-67
2022/02/28 08:18:01;;;;;;;18.40;10.73;;;;;;;1.99;60.90;100304.16;2619210;54;20130;-67
2022/02/28 08:20:32;;;;;;;15.32;10.77;;;;;;;2.08;60.87;100307.09;2619192;54;20038;-67
2022/02/28 08:23:02;;;;;;;20.98;14.18;;;;;;;2.17;60.51;100301.28;2618702;54;20034;-66
2022/02/28 08:25:32;;;;;;;22.52;13.65;;;;;;;2.28;60.44;100297.94;2618913;54;20030;-67
2022/02/28 08:28:04;;;;;;;18.25;13.48;;;;;;;2.43;60.41;100300.34;2618813;47;20027;-66
2022/02/28 08:30:35;;;;;;;18.55;13.00;;;;;;;2.57;59.61;100304.66;2619056;47;20038;-68
2022/02/28 08:33:05;;;;;;;16.75;11.00;;;;;;;2.68;59.00;100303.91;2618275;47;20034;-65
2022/02/28 08:35:35;;;;;;;19.30;11.68;;;;;;;2.77;58.44;100299.81;2618708;54;20038;-67
2022/02/28 08:38:04;;;;;;;21.10;12.25;;;;;;;2.84;58.10;100301.06;2619394;39;20441;-66
2022/02/28 08:40:34;;;;;;;24.38;13.07;;;;;;;2.92;58.36;100296.97;2618847;54;20026;-67
2022/02/28 08:43:06;;;;;;;21.65;12.85;;;;;;;3.05;57.63;100294.34;2619372;54;20061;-66
2022/02/28 08:45:36;;;;;;;16.48;11.32;;;;;;;3.13;57.44;100293.78;2618957;54;20034;-67
2022/02/28 08:48:07;;;;;;;18.17;11.55;;;;;;;3.24;57.41;100288.66;2619371;54;20035;-66
2022/02/28 08:50:39;;;;;;;15.60;10.90;;;;;;;3.38;56.87;100288.47;2620088;39;20434;-66
2022/02/28 08:53:08;;;;;;;15.23;10.23;;;;;;;3.47;56.26;100290.47;2619954;54;20038;-67
2022/02/28 08:55:38;;;;;;;17.30;11.15;;;;;;;3.59;55.63;100290.50;2620920;51;20034;-68
2022/02/28 08:58:10;;;;;;;15.05;9.95;;;;;;;3.65;55.32;100297.91;2624904;54;20038;-67
2022/02/28 09:00:40;;;;;;;17.92;10.80;;;;;;;3.78;55.44;100298.66;2624591;54;20034;-69
2022/02/28 09:03:10;;;;;;;14.85;10.65;;;;;;;3.94;53.64;100301.00;2625075;54;20027;-67
2022/02/28 09:05:40;;;;;;;16.63;11.45;;;;;;;4.02;54.05;100305.66;2624943;54;20122;-68
2022/02/28 09:08:10;;;;;;;15.90;10.68;;;;;;;4.17;53.32;100301.91;2624681;54;20541;-67
2022/02/28 09:10:41;;;;;;;17.25;11.18;;;;;;;4.30;52.92;100297.41;2623467;54;20038;-66
2022/02/28 09:13:13;;;;;;;17.38;10.68;;;;;;;4.43;51.40;100299.94;2623330;54;20042;-67
2022/02/28 09:15:46;;;;;;;13.30;9.80;;;;;;;4.57;50.72;100291.00;2623293;54;20038;-67
2022/02/28 09:18:16;;;;;;;10.80;9.27;;;;;;;4.65;50.28;100284.25;2620313;54;20118;-68
2022/02/28 09:20:45;;;;;;;13.45;9.30;;;;;;;4.72;50.02;100285.44;2618988;54;20568;-69
2022/02/28 09:23:15;;;;;;;17.10;9.52;;;;;;;4.84;49.59;100285.44;2619929;54;20030;-66
2022/02/28 09:25:45;;;;;;;13.38;8.90;;;;;;;4.96;47.88;100282.69;2618697;54;20027;-66
2022/02/28 09:28:17;;;;;;;13.13;9.43;;;;;;;5.01;48.22;100281.50;2619248;54;20041;-67
2022/02/28 09:30:47;;;;;;;13.80;9.05;;;;;;;5.12;48.53;100278.88;2618768;54;20073;-66
2022/02/28 09:33:19;;;;;;;14.35;9.68;;;;;;;5.21;47.98;100286.81;2617961;47;20030;-67
2022/02/28 09:35:51;;;;;;;13.82;9.27;;;;;;;5.26;48.64;100283.81;2618298;54;20038;-66
2022/02/28 09:38:22;;;;;;;13.70;8.70;;;;;;;5.41;48.24;100282.59;2618631;54;20158;-67
2022/02/28 09:40:53;;;;;;;13.68;8.52;;;;;;;5.55;46.88;100289.38;2618581;47;20023;-67
2022/02/28 09:43:44;;;;;;;10.93;7.88;;;;;;;5.60;45.97;100287.22;2619573;54;20073;-68
2022/02/28 09:46:36;;;;;;;12.52;7.57;;;;;;;5.65;46.18;100286.84;2619234;54;20061;-67
2022/02/28 09:49:25;;;;;;;10.60;7.20;;;;;;;5.79;44.98;100288.31;2618585;39;20708;-66
2022/02/28 09:52:24;;;;;;;9.20;6.78;;;;;;;5.93;44.06;100283.66;2617142;47;20072;-66
2022/02/28 09:55:32;;;;;;;11.77;6.90;;;;;;;5.99;43.30;100282.31;2618084;47;20073;-66
2022/02/28 09:58:36;;;;;;;9.80;6.63;;;;;;;6.04;43.29;100279.28;2618399;54;20562;-69
2022/02/28 10:01:09;;;;;;;9.23;6.50;;;;;;;6.14;43.48;100283.66;2617763;54;20038;-67
2022/02/28 10:03:45;;;;;;;11.18;7.28;;;;;;;6.23;42.82;100292.56;2618396;31;20447;-67
2022/02/28 10:06:15;;;;;;;7.90;5.97;;;;;;;6.30;43.05;100296.34;2619137;39;20093;-66
2022/02/28 10:08:46;;;;;;;10.45;6.60;;;;;;;6.41;42.71;100298.09;2618289;54;20038;-66
2022/02/28 10:11:27;;;;;;;10.65;7.88;;;;;;;6.47;42.31;100284.41;2618356;54;20542;-67
2022/02/28 10:13:59;;;;;;;8.80;6.60;;;;;;;6.53;42.32;100278.66;2618308;54;20573;-66
2022/02/28 10:16:37;;;;;;;10.18;6.75;;;;;;;6.64;41.81;100273.28;2618369;54;20058;-65
2022/02/28 10:19:09;;;;;;;8.88;7.10;;;;;;;6.66;41.58;100268.75;2618311;54;20042;-68
2022/02/28 10:21:41;;;;;;;10.10;6.50;;;;;;;6.73;41.24;100279.56;2618393;54;20034;-67
2022/02/28 10:24:12;;;;;;;9.05;6.57;;;;;;;6.81;40.80;100276.25;2617974;54;20026;-67
2022/02/28 10:27:03;;;;;;;9.52;6.90;;;;;;;6.90;41.16;100278.94;2618096;47;20034;-66
2022/02/28 10:29:55;;;;;;;14.82;7.95;;;;;;;7.04;40.23;100283.00;2618306;54;20065;-66
2022/02/28 10:32:54;;;;;;;10.48;7.00;;;;;;;7.16;39.51;100271.41;2617545;47;20034;-66
2022/02/28 10:38:36;;;;;;;7.78;5.30;;;;;;;7.29;38.15;100271.16;2617865;39;20471;-66
2022/02/28 10:41:08;;;;;;;6.88;5.05;;;;;;;7.32;38.77;100275.31;2618287;54;20015;-66
2022/02/28 10:43:39;;;;;;;7.75;5.78;;;;;;;7.42;37.82;100274.34;2617360;54;20037;-67
2022/02/28 10:46:17;;;;;;;7.60;5.18;;;;;;;7.42;37.72;100276.16;2617957;54;20049;-68
2022/02/28 10:49:07;;;;;;;6.28;5.50;;;;;;;7.51;37.92;100278.00;2618045;54;20037;-66
2022/02/28 10:51:46;;;;;;;6.63;5.13;;;;;;;7.56;37.00;100277.56;2617881;54;20038;-67
2022/02/28 10:54:21;;;;;;;7.38;5.40;;;;;;;7.57;36.87;100276.59;2618195;54;20030;-67
2022/02/28 10:56:53;;;;;;;6.15;5.22;;;;;;;7.63;36.47;100276.91;2618413;54;20037;-67
2022/02/28 10:59:25;;;;;;;7.53;4.80;;;;;;;7.69;35.84;100271.06;2618965;39;20733;-67
2022/02/28 11:01:55;;;;;;;8.50;5.55;;;;;;;7.74;35.76;100270.66;2618323;54;20788;-67
2022/02/28 11:04:39;;;;;;;6.07;5.15;;;;;;;7.76;35.90;100274.00;2618210;54;20103;-65
2022/02/28 11:07:11;;;;;;;5.50;4.30;;;;;;;7.88;34.42;100272.88;2617493;54;20569;-66
2022/02/28 11:09:45;;;;;;;6.55;4.82;;;;;;;7.88;34.79;100275.50;2618692;54;20022;-66
2022/02/28 11:12:31;;;;;;;9.05;5.97;;;;;;;7.96;34.30;100269.56;2618689;54;20037;-66
2022/02/28 11:15:04;;;;;;;8.50;5.70;;;;;;;8.13;33.96;100274.09;2618590;39;20434;-67
2022/02/28 11:17:35;;;;;;;8.57;5.45;;;;;;;8.27;34.23;100269.34;2618205;39;20433;-66
2022/02/28 11:20:10;;;;;;;12.90;7.03;;;;;;;8.35;32.49;100267.66;2616977;47;20022;-66
2022/02/28 11:22:44;;;;;;;7.03;4.97;;;;;;;8.40;32.50;100254.09;2617743;54;20034;-66
2022/02/28 11:25:20;;;;;;;6.38;4.53;;;;;;;8.46;31.91;100256.16;2617253;54;20069;-65
2022/02/28 11:27:52;;;;;;;7.90;5.20;;;;;;;8.42;32.19;100263.53;2618334;54;20033;-66
2022/02/28 11:30:24;;;;;;;5.97;4.57;;;;;;;8.53;31.33;100249.34;2619170;54;20047;-66
2022/02/28 11:32:57;;;;;;;7.90;4.90;;;;;;;8.56;31.65;100259.59;2619133;54;20050;-66
2022/02/28 11:35:46;;;;;;;5.90;4.85;;;;;;;8.58;31.74;100249.75;2618227;54;20130;-68
2022/02/28 11:38:46;;;;;;;7.75;4.97;;;;;;;8.66;31.23;100246.38;2620135;54;20030;-66
2022/02/28 11:41:19;;;;;;;6.88;5.00;;;;;;;8.70;30.76;100250.41;2617792;47;20035;-65
2022/02/28 11:43:52;;;;;;;6.75;5.10;;;;;;;8.71;30.95;100241.50;2617932;54;20034;-65
2022/02/28 11:46:24;;;;;;;6.55;4.93;;;;;;;8.72;31.88;100237.06;2616684;54;20027;-66
2022/02/28 11:48:55;;;;;;;7.25;5.55;;;;;;;8.74;31.63;100246.50;2618049;54;20031;-66
2022/02/28 11:51:31;;;;;;;7.55;5.40;;;;;;;8.76;31.38;100233.97;2617631;54;20042;-66
2022/02/28 11:54:02;;;;;;;7.82;5.18;;;;;;;8.77;31.49;100234.81;2617392;49;20027;-66
2022/02/28 11:56:55;;;;;;;8.00;6.00;;;;;;;8.84;31.82;100231.44;2619144;54;20038;-66